• Join FlightAware (Why Join?)
  • Login
  • US Flag 
05:29AM EDT


 

Airport Tracker/Info


-or-


 

Live Flight TrackerFlight Track Log ✈ UAL4536 ✈ 28-Apr-2013 ✈ KTUL - KIAH

Flight Track Log - Related Links

Times and Time Zones

All times are in EDT time to prevent confusion due to time zone crossing. See the UAL4536 flight status page for this flight to view local times or setup timezone preferences in your user account.

Time Position Orientation Groundspeed Altitude Reporting Facility
EDT Latitude Longitude Course Direction KTS MPH feet Rate Location/Type
11:43AM 36.1942 -95.9231 208° Southwest 178 205 1,500  Level Kansas City Center
11:45AM 36.1519 -95.9864 230° Southwest 231 266 4,700 2,160 Climbing Kansas City Center
11:46AM 36.0672 -95.9628 167° South 297 342 7,200 2,340 Climbing Kansas City Center
11:47AM 35.8539 -95.8557 180° South  Level Estimated
11:47AM 35.9825 -95.9414 168° South 285 328 9,600  Level Kansas City Center
11:48AM 35.7678 -95.8476 172° South  Level Estimated
11:48AM 35.8972 -95.9183 168° South 302 348 10,500  Level Kansas City Center
11:49AM 35.6696 -95.8384 208° Southwest  Level Estimated
11:49AM 35.7961 -95.8919 168° South 356 410 11,900  Level Kansas City Center
11:50AM 35.6961 -95.8669 169° South 366 421 13,500 1,380 Climbing Kansas City Center
11:51AM 35.5850 -95.9078 197° South 372 428 14,700 1,320 Climbing Fort Worth Center
11:52AM 35.4853 -95.9478 198° South 372 428 16,100 1,320 Climbing Fort Worth Center
11:53AM 35.3814 -95.9853 196° South 377 434 17,400 1,080 Climbing Fort Worth Center
11:54AM 35.2775 -96.0250 197° South 383 441 18,300 900 Climbing Fort Worth Center
11:55AM 35.1675 -96.0650 197° South 398 458 19,300 1,080 Climbing Fort Worth Center
11:56AM 35.0594 -96.1097 199° South 408 470 20,500 1,200 Climbing Fort Worth Center
11:57AM 34.9494 -96.1494 196° South 408 470 21,700 1,260 Climbing Fort Worth Center
11:58AM 34.8372 -96.1917 197° South 418 481 23,100 1,380 Climbing Fort Worth Center
11:59AM 34.7292 -96.2336 198° South 418 481 24,500 1,380 Climbing Fort Worth Center
12:00PM 34.6167 -96.2731 196° South 418 481 25,900 1,260 Climbing Fort Worth Center
12:01PM 34.5108 -96.3147 198° South 418 481 27,100 1,200 Climbing Fort Worth Center
12:02PM 34.4047 -96.3539 197° South 418 481 28,300 1,260 Climbing Fort Worth Center
12:03PM 34.3006 -96.3928 197° South 411 473 29,700 1,620 Climbing Fort Worth Center
12:04PM 34.1967 -96.4317 197° South 400 460 31,600 1,440 Climbing Fort Worth Center
12:05PM 34.1156 -96.4628 198° South 395 455 32,600 1,200 Climbing Fort Worth Center
12:06PM 33.9989 -96.5042 196° South 377 434 34,000 660 Climbing Fort Worth Center
12:07PM 33.8908 -96.5428 197° South 384 442 34,000  Level Fort Worth Center
12:08PM 33.7928 -96.5786 197° South 408 470 34,100  Climbing Fort Worth Center
12:09PM 33.6783 -96.6197 197° South 422 486 34,000 -60 Descending Fort Worth Center
12:10PM 33.5700 -96.6606 197° South 422 486 34,000  Level Fort Worth Center
12:11PM 33.4617 -96.6989 196° South 413 475 34,000  Level Fort Worth Center
12:12PM 33.3556 -96.7369 197° South 413 475 34,000  Level Fort Worth Center
12:13PM 33.2472 -96.7775 197° South 408 470 34,000  Level Fort Worth Center
12:14PM 33.1325 -96.8156 196° South 399 459 34,000  Level Fort Worth Center
12:15PM 33.0306 -96.8533 197° South 394 453 34,000  Level Fort Worth Center
12:16PM 32.8897 -96.9019 196° South 388 447 34,000  Level Houston Center
12:17PM 32.8197 -96.8844 168° South 380 437 34,000  Level Fort Worth Center
12:18PM 32.7111 -96.8531 166° South 385 443 34,000  Level Fort Worth Center
12:19PM 32.6150 -96.8239 166° South 391 450 34,000  Level Fort Worth Center
12:20PM 32.5061 -96.7925 166° South 396 456 34,000 -240 Level Fort Worth Center
12:21PM 32.3953 -96.7639 168° South 403 464 33,600 -600 Descending Fort Worth Center
12:22PM 32.2803 -96.7278 165° South 419 482 32,800 -780 Descending Fort Worth Center
12:23PM 32.1653 -96.6967 167° South 433 498 32,100 -780 Descending Fort Worth Center
12:24PM 32.0442 -96.6633 167° South 433 498 31,300 -840 Descending Fort Worth Center
12:25PM 31.9186 -96.6278 166° South 433 498 30,500 -780 Descending Fort Worth Center
12:26PM 31.7994 -96.5944 167° South 433 498 29,800 -780 Descending Fort Worth Center
12:27PM 31.6822 -96.5589 166° South 433 498 29,000 -480 Descending Fort Worth Center
12:28PM 31.5872 -96.5331 167° South 431 496 29,000  Level Houston Center
12:29PM 31.4747 -96.4981 165° South 420 483 29,000 -180 Level Houston Center
12:30PM 31.3619 -96.4539 162° South 418 481 28,700 -840 Descending Houston Center
12:31PM 31.2508 -96.4131 163° South 416 479 27,300 -1,680 Descending Houston Center
12:32PM 31.1367 -96.3697 162° South 421 484 25,300 -1,980 Descending Houston Center
12:33PM 31.0169 -96.3264 163° South 433 498 23,200 -2,160 Descending Houston Center
12:34PM 30.8958 -96.2806 162° South 444 511 20,900 -2,520 Descending Houston Center
12:35PM 30.7711 -96.1978 150° Southeast 442 509 18,000 -2,700 Descending Houston Center
12:36PM 30.6850 -96.1061 138° Southeast 419 482 15,400 -2,400 Descending Houston Center
12:37PM 30.6067 -96.0244 138° Southeast 394 453 13,100 -2,040 Descending Houston Center
12:38PM 30.5272 -95.9417 138° Southeast 326 375 11,300 -1,560 Descending Houston Center
12:39PM 30.4625 -95.8739 138° Southeast 305 351 10,000 -1,080 Descending Houston Center
12:40PM 30.3931 -95.8481 162° South 276 318 9,200 -1,020 Descending Houston Center
12:41PM 30.3111 -95.8456 178° South 275 316 8,000 -600 Descending Houston Center
12:42PM 30.2358 -95.8425 178° South 270 311 8,000 -120 Level Houston Center
12:43PM 30.1678 -95.8381 177° South 239 275 7,800 -780 Descending Houston Center
12:44PM 30.1111 -95.7956 147° Southeast 240 276 6,400 -1,320 Descending Houston Center
12:45PM 30.0569 -95.7472 142° Southeast 232 267 5,200 -720 Descending Houston Center
12:46PM 30.0064 -95.7000 141° Southeast 233 268 5,100 -120 Descending Houston Center
12:47PM 29.9917 -95.6294 104° East 249 287 5,000 -300 Descending Houston Center
12:48PM 29.9911 -95.5522 90° East 213 245 4,500 -840 Descending Houston Center
12:49PM 29.9917 -95.4894 89° East 190 219 3,300 -1,200 Descending Houston Center